Harrison, AR

10:03 AM CDT on August 31, 2015 (GMT -0500)
AJ5C - Northwest Harrison | | Change Station
CLOSE
Current Station
Personal Weather Station
Location: Harrison, AR
Elevation: 1266 ft
Nearby Weather Stations

Elev 1266 ft 36.26 °N, 93.15 °W | Updated 14 seconds ago

Clear
Clear
77.3 °F
Feels Like 79 °F
N
5.8
Wind Variable Wind from WSW
Gusts 5.8 mph

Today
High -- | Low -- °F
--% Chance of Precip.
Yesterday
High -- | Low -- °F
Precip. -- in
6:43 AM 7:42 PM
Waning Gibbous, 95% visible
Pressure 30.10 in
Visibility 10.0 miles
Clouds Few 15000 ft
Heat Index 79 °F
Dew Point 71 °F
Humidity 80%
Rainfall 0.00 in
Snow Depth Not available.
UV 4 out of 12
Pollen 10.60 out of 12
Air Quality Not available.
Flu Activity Not available.
METAR KBBG 311450Z 18005KT 10SM FEW150 26/20 A3010
Pressure 30.10 in
Visibility 10.0 miles
Clouds Few 15000 ft
Heat Index 79 °F
Dew Point 71 °F
Humidity 80%
Rainfall 0.00 in
Snow Depth Not available.
UV 4 out of 12
Pollen 10.60 out of 12
Air Quality Not available.
Flu Activity Not available.
METAR KBBG 311450Z 18005KT 10SM FEW150 26/20 A3010

10-Day Weather Forecast

×

Almanac

Astronomy

Aug. 31, 2015 Rise Set
Actual Time
Civil Twilight
Nautical Twilight
Astronomical Twilight
Moon
Length of Visible Light
Length of Day
Tomorrow will be .
, % of the Moon is Illuminated

Today's Extremes

State Highs State Lows

Community

WunderPhotos

Upload Photos

1,851,267 photos uploaded!

WunderBlogs® & News

Nearby

Air Quality

  Air Quality AQ Index Pollutant
Not available.

Snow Depth

Station Depth Elevation

Earthquake Activity

City Distance Mag. Time & Date
Minimum magnitude displayed is 2.5.

Coastal Water Temperatures

Place Temperature

Stations

Nearby Weather Stations

Station Location Temp. Windchill Dew Point Humidity Wind Precip. Elev Updated Type